sensor_id;sensor_type;location;lat;lon;timestamp;P1;durP1;ratioP1;P2;durP2;ratioP2
43606;SDS011;29197;44.788;10.366;2023-02-19T00:02:35;23.77;;;15.73;;
43606;SDS011;29197;44.788;10.366;2023-02-19T00:05:24;25.85;;;18.48;;
43606;SDS011;29197;44.788;10.366;2023-02-19T00:08:12;26.20;;;18.35;;
43606;SDS011;29197;44.788;10.366;2023-02-19T00:11:02;25.17;;;17.42;;
43606;SDS011;29197;44.788;10.366;2023-02-19T00:13:53;27.45;;;19.02;;
43606;SDS011;29197;44.788;10.366;2023-02-19T00:16:43;23.73;;;16.85;;
43606;SDS011;29197;44.788;10.366;2023-02-19T00:19:31;24.10;;;17.50;;
43606;SDS011;29197;44.788;10.366;2023-02-19T00:22:20;24.23;;;17.10;;
43606;SDS011;29197;44.788;10.366;2023-02-19T00:25:08;24.87;;;17.60;;
43606;SDS011;29197;44.788;10.366;2023-02-19T00:27:58;26.40;;;18.15;;
43606;SDS011;29197;44.788;10.366;2023-02-19T00:30:47;28.45;;;17.77;;
43606;SDS011;29197;44.788;10.366;2023-02-19T00:33:35;28.98;;;19.90;;
43606;SDS011;29197;44.788;10.366;2023-02-19T00:36:24;23.73;;;16.40;;
43606;SDS011;29197;44.788;10.366;2023-02-19T00:39:14;27.00;;;18.73;;
43606;SDS011;29197;44.788;10.366;2023-02-19T00:42:04;24.77;;;17.65;;
43606;SDS011;29197;44.788;10.366;2023-02-19T00:44:54;31.85;;;20.25;;
43606;SDS011;29197;44.788;10.366;2023-02-19T00:47:42;26.02;;;18.40;;
43606;SDS011;29197;44.788;10.366;2023-02-19T00:50:31;26.67;;;18.53;;
43606;SDS011;29197;44.788;10.366;2023-02-19T00:53:19;25.10;;;16.65;;
43606;SDS011;29197;44.788;10.366;2023-02-19T00:56:08;26.50;;;18.77;;
43606;SDS011;29197;44.788;10.366;2023-02-19T00:58:57;25.35;;;17.60;;
43606;SDS011;29197;44.788;10.366;2023-02-19T01:01:46;24.70;;;16.92;;
43606;SDS011;29197;44.788;10.366;2023-02-19T01:04:35;29.42;;;19.58;;
43606;SDS011;29197;44.788;10.366;2023-02-19T01:07:24;29.07;;;20.17;;
43606;SDS011;29197;44.788;10.366;2023-02-19T01:10:12;26.23;;;18.13;;
43606;SDS011;29197;44.788;10.366;2023-02-19T01:13:01;26.80;;;17.90;;
43606;SDS011;29197;44.788;10.366;2023-02-19T01:15:49;28.05;;;18.90;;
43606;SDS011;29197;44.788;10.366;2023-02-19T01:18:40;28.13;;;17.27;;
43606;SDS011;29197;44.788;10.366;2023-02-19T01:21:29;23.58;;;16.15;;
43606;SDS011;29197;44.788;10.366;2023-02-19T01:24:18;29.02;;;19.33;;
43606;SDS011;29197;44.788;10.366;2023-02-19T01:27:06;25.48;;;17.25;;
43606;SDS011;29197;44.788;10.366;2023-02-19T01:29:55;32.05;;;21.25;;
43606;SDS011;29197;44.788;10.366;2023-02-19T01:32:43;29.20;;;19.10;;
43606;SDS011;29197;44.788;10.366;2023-02-19T01:35:33;23.65;;;16.67;;
43606;SDS011;29197;44.788;10.366;2023-02-19T01:38:26;29.25;;;19.33;;
43606;SDS011;29197;44.788;10.366;2023-02-19T01:41:16;27.13;;;18.17;;
43606;SDS011;29197;44.788;10.366;2023-02-19T01:44:56;29.97;;;20.37;;
43606;SDS011;29197;44.788;10.366;2023-02-19T01:47:34;26.60;;;17.77;;
43606;SDS011;29197;44.788;10.366;2023-02-19T01:50:23;28.07;;;18.37;;
43606;SDS011;29197;44.788;10.366;2023-02-19T01:53:16;23.20;;;16.80;;
43606;SDS011;29197;44.788;10.366;2023-02-19T01:56:08;28.35;;;18.90;;
43606;SDS011;29197;44.788;10.366;2023-02-19T01:58:58;24.95;;;16.63;;
43606;SDS011;29197;44.788;10.366;2023-02-19T02:01:48;30.60;;;19.90;;
43606;SDS011;29197;44.788;10.366;2023-02-19T02:04:36;25.60;;;17.10;;
43606;SDS011;29197;44.788;10.366;2023-02-19T02:07:25;27.00;;;18.80;;
43606;SDS011;29197;44.788;10.366;2023-02-19T02:10:33;25.77;;;17.90;;
43606;SDS011;29197;44.788;10.366;2023-02-19T02:13:22;24.42;;;17.05;;
43606;SDS011;29197;44.788;10.366;2023-02-19T02:16:16;24.37;;;16.77;;
43606;SDS011;29197;44.788;10.366;2023-02-19T02:19:14;26.52;;;18.35;;
43606;SDS011;29197;44.788;10.366;2023-02-19T02:22:25;27.93;;;18.70;;
43606;SDS011;29197;44.788;10.366;2023-02-19T02:25:35;26.20;;;17.42;;
43606;SDS011;29197;44.788;10.366;2023-02-19T02:28:45;23.75;;;16.45;;
43606;SDS011;29197;44.788;10.366;2023-02-19T02:31:52;21.98;;;14.52;;
43606;SDS011;29197;44.788;10.366;2023-02-19T02:34:44;25.07;;;17.17;;
43606;SDS011;29197;44.788;10.366;2023-02-19T02:37:38;21.37;;;15.10;;
43606;SDS011;29197;44.788;10.366;2023-02-19T02:40:29;29.50;;;18.60;;
43606;SDS011;29197;44.788;10.366;2023-02-19T02:43:17;23.65;;;15.30;;
43606;SDS011;29197;44.788;10.366;2023-02-19T02:46:08;28.10;;;18.80;;
43606;SDS011;29197;44.788;10.366;2023-02-19T02:49:00;22.55;;;14.98;;
43606;SDS011;29197;44.788;10.366;2023-02-19T02:51:52;20.67;;;14.70;;
43606;SDS011;29197;44.788;10.366;2023-02-19T02:54:43;28.17;;;17.70;;
43606;SDS011;29197;44.788;10.366;2023-02-19T02:57:48;25.67;;;17.23;;
43606;SDS011;29197;44.788;10.366;2023-02-19T03:00:37;27.55;;;17.95;;
43606;SDS011;29197;44.788;10.366;2023-02-19T03:03:46;21.55;;;14.77;;
43606;SDS011;29197;44.788;10.366;2023-02-19T03:06:39;21.50;;;15.00;;
43606;SDS011;29197;44.788;10.366;2023-02-19T03:09:29;23.30;;;14.98;;
43606;SDS011;29197;44.788;10.366;2023-02-19T03:12:26;19.85;;;14.52;;
43606;SDS011;29197;44.788;10.366;2023-02-19T03:15:35;19.38;;;13.60;;
43606;SDS011;29197;44.788;10.366;2023-02-19T03:18:45;24.30;;;16.23;;
43606;SDS011;29197;44.788;10.366;2023-02-19T03:21:55;25.35;;;16.98;;
43606;SDS011;29197;44.788;10.366;2023-02-19T03:24:49;26.55;;;16.83;;
43606;SDS011;29197;44.788;10.366;2023-02-19T03:27:59;25.27;;;16.50;;
43606;SDS011;29197;44.788;10.366;2023-02-19T03:30:51;21.73;;;15.75;;
43606;SDS011;29197;44.788;10.366;2023-02-19T03:33:42;24.25;;;17.10;;
43606;SDS011;29197;44.788;10.366;2023-02-19T03:36:34;25.83;;;17.33;;
43606;SDS011;29197;44.788;10.366;2023-02-19T03:39:27;26.40;;;17.63;;
43606;SDS011;29197;44.788;10.366;2023-02-19T03:42:19;25.43;;;17.23;;
43606;SDS011;29197;44.788;10.366;2023-02-19T03:45:33;28.30;;;18.27;;
43606;SDS011;29197;44.788;10.366;2023-02-19T03:48:29;28.38;;;18.23;;
43606;SDS011;29197;44.788;10.366;2023-02-19T03:51:24;26.38;;;17.95;;
43606;SDS011;29197;44.788;10.366;2023-02-19T03:54:18;25.40;;;16.52;;
43606;SDS011;29197;44.788;10.366;2023-02-19T03:57:13;22.83;;;15.15;;
43606;SDS011;29197;44.788;10.366;2023-02-19T04:00:08;23.15;;;15.45;;
43606;SDS011;29197;44.788;10.366;2023-02-19T04:02:59;24.08;;;16.02;;
43606;SDS011;29197;44.788;10.366;2023-02-19T04:05:54;29.13;;;17.80;;
43606;SDS011;29197;44.788;10.366;2023-02-19T04:08:46;27.33;;;17.27;;
43606;SDS011;29197;44.788;10.366;2023-02-19T04:11:39;24.40;;;16.95;;
43606;SDS011;29197;44.788;10.366;2023-02-19T04:14:31;27.05;;;18.33;;
43606;SDS011;29197;44.788;10.366;2023-02-19T04:17:23;31.00;;;20.00;;
43606;SDS011;29197;44.788;10.366;2023-02-19T04:20:14;29.00;;;19.42;;
43606;SDS011;29197;44.788;10.366;2023-02-19T04:23:05;28.00;;;18.85;;
43606;SDS011;29197;44.788;10.366;2023-02-19T04:25:55;29.65;;;18.70;;
43606;SDS011;29197;44.788;10.366;2023-02-19T04:28:46;30.77;;;19.88;;
43606;SDS011;29197;44.788;10.366;2023-02-19T04:31:36;28.17;;;18.98;;
43606;SDS011;29197;44.788;10.366;2023-02-19T04:34:25;29.80;;;19.83;;
43606;SDS011;29197;44.788;10.366;2023-02-19T04:37:14;27.58;;;19.02;;
43606;SDS011;29197;44.788;10.366;2023-02-19T04:40:02;32.33;;;20.58;;
43606;SDS011;29197;44.788;10.366;2023-02-19T04:42:51;32.73;;;21.23;;
43606;SDS011;29197;44.788;10.366;2023-02-19T04:45:39;31.75;;;21.25;;
43606;SDS011;29197;44.788;10.366;2023-02-19T04:48:29;26.43;;;17.80;;
43606;SDS011;29197;44.788;10.366;2023-02-19T04:51:18;30.60;;;20.23;;
43606;SDS011;29197;44.788;10.366;2023-02-19T04:54:06;31.95;;;21.17;;
43606;SDS011;29197;44.788;10.366;2023-02-19T04:56:55;34.25;;;21.70;;
43606;SDS011;29197;44.788;10.366;2023-02-19T04:59:44;32.17;;;20.95;;
43606;SDS011;29197;44.788;10.366;2023-02-19T05:02:33;33.80;;;21.87;;
43606;SDS011;29197;44.788;10.366;2023-02-19T05:05:23;31.23;;;19.10;;
43606;SDS011;29197;44.788;10.366;2023-02-19T05:08:12;30.03;;;19.57;;
43606;SDS011;29197;44.788;10.366;2023-02-19T05:11:01;32.13;;;20.23;;
43606;SDS011;29197;44.788;10.366;2023-02-19T05:13:51;33.53;;;20.25;;
43606;SDS011;29197;44.788;10.366;2023-02-19T05:16:41;33.60;;;21.25;;
43606;SDS011;29197;44.788;10.366;2023-02-19T05:19:30;27.93;;;18.47;;
43606;SDS011;29197;44.788;10.366;2023-02-19T05:22:20;30.63;;;20.92;;
43606;SDS011;29197;44.788;10.366;2023-02-19T05:25:08;34.97;;;22.60;;
43606;SDS011;29197;44.788;10.366;2023-02-19T05:27:57;34.03;;;22.42;;
43606;SDS011;29197;44.788;10.366;2023-02-19T05:31:02;27.27;;;18.20;;
43606;SDS011;29197;44.788;10.366;2023-02-19T05:33:53;28.13;;;17.60;;
43606;SDS011;29197;44.788;10.366;2023-02-19T05:36:42;28.77;;;19.27;;
43606;SDS011;29197;44.788;10.366;2023-02-19T05:39:32;29.35;;;19.48;;
43606;SDS011;29197;44.788;10.366;2023-02-19T05:42:20;26.27;;;16.88;;
43606;SDS011;29197;44.788;10.366;2023-02-19T05:45:09;26.55;;;18.02;;
43606;SDS011;29197;44.788;10.366;2023-02-19T05:47:58;28.27;;;18.88;;
43606;SDS011;29197;44.788;10.366;2023-02-19T05:50:46;29.80;;;19.60;;
43606;SDS011;29197;44.788;10.366;2023-02-19T05:53:35;32.45;;;19.75;;
43606;SDS011;29197;44.788;10.366;2023-02-19T05:56:28;31.80;;;20.75;;
43606;SDS011;29197;44.788;10.366;2023-02-19T05:59:19;30.33;;;18.88;;
43606;SDS011;29197;44.788;10.366;2023-02-19T06:02:09;29.40;;;19.13;;
43606;SDS011;29197;44.788;10.366;2023-02-19T06:04:57;31.73;;;19.70;;
43606;SDS011;29197;44.788;10.366;2023-02-19T06:07:46;32.03;;;19.90;;
43606;SDS011;29197;44.788;10.366;2023-02-19T06:10:36;31.98;;;20.33;;
43606;SDS011;29197;44.788;10.366;2023-02-19T06:13:28;34.80;;;20.08;;
43606;SDS011;29197;44.788;10.366;2023-02-19T06:16:16;30.90;;;18.75;;
43606;SDS011;29197;44.788;10.366;2023-02-19T06:19:05;30.65;;;19.83;;
43606;SDS011;29197;44.788;10.366;2023-02-19T06:21:54;32.80;;;20.55;;
43606;SDS011;29197;44.788;10.366;2023-02-19T06:24:42;30.42;;;19.42;;
43606;SDS011;29197;44.788;10.366;2023-02-19T06:27:30;33.22;;;20.48;;
43606;SDS011;29197;44.788;10.366;2023-02-19T06:30:20;30.40;;;19.52;;
43606;SDS011;29197;44.788;10.366;2023-02-19T06:33:09;33.28;;;20.48;;
43606;SDS011;29197;44.788;10.366;2023-02-19T06:35:58;30.23;;;19.67;;
43606;SDS011;29197;44.788;10.366;2023-02-19T06:38:47;32.25;;;19.70;;
43606;SDS011;29197;44.788;10.366;2023-02-19T06:41:36;27.92;;;18.70;;
43606;SDS011;29197;44.788;10.366;2023-02-19T06:44:24;28.10;;;17.75;;
43606;SDS011;29197;44.788;10.366;2023-02-19T06:47:14;29.27;;;18.77;;
43606;SDS011;29197;44.788;10.366;2023-02-19T06:50:03;28.95;;;17.83;;
43606;SDS011;29197;44.788;10.366;2023-02-19T06:52:52;27.98;;;19.63;;
43606;SDS011;29197;44.788;10.366;2023-02-19T06:55:40;29.33;;;19.23;;
43606;SDS011;29197;44.788;10.366;2023-02-19T06:58:28;26.90;;;17.50;;
43606;SDS011;29197;44.788;10.366;2023-02-19T07:01:17;32.03;;;18.67;;
43606;SDS011;29197;44.788;10.366;2023-02-19T07:04:07;27.00;;;17.15;;
43606;SDS011;29197;44.788;10.366;2023-02-19T07:06:56;28.70;;;18.23;;
43606;SDS011;29197;44.788;10.366;2023-02-19T07:09:45;25.47;;;15.97;;
43606;SDS011;29197;44.788;10.366;2023-02-19T07:12:34;26.80;;;17.15;;
43606;SDS011;29197;44.788;10.366;2023-02-19T07:15:22;21.38;;;14.52;;
43606;SDS011;29197;44.788;10.366;2023-02-19T07:18:11;24.13;;;15.80;;
43606;SDS011;29197;44.788;10.366;2023-02-19T07:21:02;23.35;;;14.30;;
43606;SDS011;29197;44.788;10.366;2023-02-19T07:23:51;22.95;;;14.98;;
43606;SDS011;29197;44.788;10.366;2023-02-19T07:26:39;23.50;;;15.80;;
43606;SDS011;29197;44.788;10.366;2023-02-19T07:29:28;29.23;;;19.70;;
43606;SDS011;29197;44.788;10.366;2023-02-19T07:32:16;41.47;;;27.43;;
43606;SDS011;29197;44.788;10.366;2023-02-19T07:35:05;24.52;;;16.85;;
43606;SDS011;29197;44.788;10.366;2023-02-19T07:37:55;33.83;;;22.40;;
43606;SDS011;29197;44.788;10.366;2023-02-19T07:40:49;27.00;;;17.25;;
43606;SDS011;29197;44.788;10.366;2023-02-19T07:43:38;25.90;;;15.93;;
43606;SDS011;29197;44.788;10.366;2023-02-19T07:46:26;24.63;;;16.48;;
43606;SDS011;29197;44.788;10.366;2023-02-19T07:49:15;25.98;;;17.45;;
43606;SDS011;29197;44.788;10.366;2023-02-19T07:52:04;27.33;;;17.23;;
43606;SDS011;29197;44.788;10.366;2023-02-19T07:54:54;22.63;;;15.43;;
43606;SDS011;29197;44.788;10.366;2023-02-19T07:57:42;26.23;;;18.23;;
43606;SDS011;29197;44.788;10.366;2023-02-19T08:00:31;26.05;;;18.08;;
43606;SDS011;29197;44.788;10.366;2023-02-19T08:03:19;24.27;;;17.02;;
43606;SDS011;29197;44.788;10.366;2023-02-19T08:06:07;27.55;;;18.23;;
43606;SDS011;29197;44.788;10.366;2023-02-19T08:08:57;23.98;;;16.40;;
43606;SDS011;29197;44.788;10.366;2023-02-19T08:11:46;24.30;;;16.13;;
43606;SDS011;29197;44.788;10.366;2023-02-19T08:14:53;24.92;;;15.95;;
43606;SDS011;29197;44.788;10.366;2023-02-19T08:17:41;27.48;;;17.02;;
43606;SDS011;29197;44.788;10.366;2023-02-19T08:20:29;26.20;;;16.95;;
43606;SDS011;29197;44.788;10.366;2023-02-19T08:23:18;23.35;;;16.20;;
43606;SDS011;29197;44.788;10.366;2023-02-19T08:26:07;23.23;;;16.52;;
43606;SDS011;29197;44.788;10.366;2023-02-19T08:28:57;27.42;;;18.50;;
43606;SDS011;29197;44.788;10.366;2023-02-19T08:31:45;26.63;;;18.25;;
43606;SDS011;29197;44.788;10.366;2023-02-19T08:34:34;27.95;;;17.73;;
43606;SDS011;29197;44.788;10.366;2023-02-19T08:37:23;25.50;;;17.60;;
43606;SDS011;29197;44.788;10.366;2023-02-19T08:40:12;25.65;;;17.98;;
43606;SDS011;29197;44.788;10.366;2023-02-19T08:43:01;30.67;;;20.70;;
43606;SDS011;29197;44.788;10.366;2023-02-19T08:45:51;29.30;;;19.58;;
43606;SDS011;29197;44.788;10.366;2023-02-19T08:48:41;25.77;;;17.85;;
43606;SDS011;29197;44.788;10.366;2023-02-19T08:51:29;27.00;;;17.77;;
43606;SDS011;29197;44.788;10.366;2023-02-19T08:54:18;27.58;;;18.42;;
43606;SDS011;29197;44.788;10.366;2023-02-19T08:57:06;25.48;;;18.40;;
43606;SDS011;29197;44.788;10.366;2023-02-19T08:59:55;24.60;;;17.75;;
43606;SDS011;29197;44.788;10.366;2023-02-19T09:02:45;27.50;;;17.03;;
43606;SDS011;29197;44.788;10.366;2023-02-19T09:05:33;22.67;;;16.10;;
43606;SDS011;29197;44.788;10.366;2023-02-19T09:08:22;20.87;;;15.23;;
43606;SDS011;29197;44.788;10.366;2023-02-19T09:11:10;19.70;;;14.82;;
43606;SDS011;29197;44.788;10.366;2023-02-19T09:13:59;18.98;;;13.25;;
43606;SDS011;29197;44.788;10.366;2023-02-19T09:16:51;16.70;;;12.15;;
43606;SDS011;29197;44.788;10.366;2023-02-19T09:19:41;19.48;;;13.77;;
43606;SDS011;29197;44.788;10.366;2023-02-19T09:22:30;21.73;;;16.00;;
43606;SDS011;29197;44.788;10.366;2023-02-19T09:25:18;16.70;;;12.98;;
43606;SDS011;29197;44.788;10.366;2023-02-19T09:28:07;16.70;;;12.48;;
43606;SDS011;29197;44.788;10.366;2023-02-19T09:30:55;16.25;;;12.10;;
43606;SDS011;29197;44.788;10.366;2023-02-19T09:33:44;17.70;;;12.87;;
43606;SDS011;29197;44.788;10.366;2023-02-19T09:36:34;14.63;;;11.38;;
43606;SDS011;29197;44.788;10.366;2023-02-19T09:39:23;14.63;;;11.20;;
43606;SDS011;29197;44.788;10.366;2023-02-19T09:42:12;18.40;;;13.15;;
43606;SDS011;29197;44.788;10.366;2023-02-19T09:45:04;16.53;;;12.20;;
43606;SDS011;29197;44.788;10.366;2023-02-19T09:47:54;19.87;;;14.13;;
43606;SDS011;29197;44.788;10.366;2023-02-19T09:50:46;16.42;;;12.48;;
43606;SDS011;29197;44.788;10.366;2023-02-19T09:53:39;18.80;;;13.18;;
43606;SDS011;29197;44.788;10.366;2023-02-19T09:56:31;17.30;;;13.00;;
43606;SDS011;29197;44.788;10.366;2023-02-19T09:59:20;15.57;;;11.52;;
43606;SDS011;29197;44.788;10.366;2023-02-19T10:02:12;14.27;;;10.63;;
43606;SDS011;29197;44.788;10.366;2023-02-19T10:05:02;16.48;;;11.93;;
43606;SDS011;29197;44.788;10.366;2023-02-19T10:07:56;17.67;;;12.85;;
43606;SDS011;29197;44.788;10.366;2023-02-19T10:10:47;19.90;;;14.67;;
43606;SDS011;29197;44.788;10.366;2023-02-19T10:13:36;14.70;;;10.98;;
43606;SDS011;29197;44.788;10.366;2023-02-19T10:16:29;12.65;;;10.18;;
43606;SDS011;29197;44.788;10.366;2023-02-19T10:19:18;17.50;;;13.23;;
43606;SDS011;29197;44.788;10.366;2023-02-19T10:22:07;18.75;;;13.85;;
43606;SDS011;29197;44.788;10.366;2023-02-19T10:24:58;16.23;;;12.13;;
43606;SDS011;29197;44.788;10.366;2023-02-19T10:27:48;11.93;;;9.85;;
43606;SDS011;29197;44.788;10.366;2023-02-19T10:30:37;13.00;;;9.97;;
43606;SDS011;29197;44.788;10.366;2023-02-19T10:33:25;12.52;;;9.88;;
43606;SDS011;29197;44.788;10.366;2023-02-19T10:36:16;14.27;;;10.55;;
43606;SDS011;29197;44.788;10.366;2023-02-19T10:39:26;16.05;;;11.05;;
43606;SDS011;29197;44.788;10.366;2023-02-19T10:42:24;16.73;;;11.95;;
43606;SDS011;29197;44.788;10.366;2023-02-19T10:45:17;15.05;;;12.00;;
43606;SDS011;29197;44.788;10.366;2023-02-19T10:48:17;12.55;;;10.20;;
43606;SDS011;29197;44.788;10.366;2023-02-19T10:51:10;20.38;;;14.57;;
43606;SDS011;29197;44.788;10.366;2023-02-19T10:54:09;16.85;;;12.50;;
43606;SDS011;29197;44.788;10.366;2023-02-19T10:57:22;14.57;;;11.77;;
43606;SDS011;29197;44.788;10.366;2023-02-19T11:00:20;16.40;;;12.05;;
43606;SDS011;29197;44.788;10.366;2023-02-19T11:03:13;15.27;;;11.32;;
43606;SDS011;29197;44.788;10.366;2023-02-19T11:06:07;13.60;;;11.03;;
43606;SDS011;29197;44.788;10.366;2023-02-19T11:08:57;12.27;;;10.05;;
43606;SDS011;29197;44.788;10.366;2023-02-19T11:11:48;14.65;;;10.75;;
43606;SDS011;29197;44.788;10.366;2023-02-19T11:14:40;13.50;;;10.90;;
43606;SDS011;29197;44.788;10.366;2023-02-19T11:17:31;13.27;;;10.07;;
43606;SDS011;29197;44.788;10.366;2023-02-19T11:20:20;12.32;;;9.32;;
43606;SDS011;29197;44.788;10.366;2023-02-19T11:23:11;13.88;;;10.95;;
43606;SDS011;29197;44.788;10.366;2023-02-19T11:26:03;16.17;;;12.25;;
43606;SDS011;29197;44.788;10.366;2023-02-19T11:28:54;15.87;;;12.47;;
43606;SDS011;29197;44.788;10.366;2023-02-19T11:31:44;13.73;;;10.70;;
43606;SDS011;29197;44.788;10.366;2023-02-19T11:34:34;18.13;;;13.13;;
43606;SDS011;29197;44.788;10.366;2023-02-19T11:37:23;14.80;;;11.35;;
43606;SDS011;29197;44.788;10.366;2023-02-19T11:40:11;14.20;;;10.77;;
43606;SDS011;29197;44.788;10.366;2023-02-19T11:43:01;14.13;;;10.40;;
43606;SDS011;29197;44.788;10.366;2023-02-19T11:45:58;11.65;;;9.57;;
43606;SDS011;29197;44.788;10.366;2023-02-19T11:48:57;14.10;;;10.60;;
43606;SDS011;29197;44.788;10.366;2023-02-19T11:52:10;14.50;;;11.13;;
43606;SDS011;29197;44.788;10.366;2023-02-19T11:55:09;14.77;;;11.40;;
43606;SDS011;29197;44.788;10.366;2023-02-19T12:05:17;14.73;;;11.57;;
43606;SDS011;29197;44.788;10.366;2023-02-19T12:08:38;15.20;;;11.88;;
43606;SDS011;29197;44.788;10.366;2023-02-19T12:11:43;13.88;;;10.82;;
43606;SDS011;29197;44.788;10.366;2023-02-19T12:14:47;13.38;;;10.32;;
43606;SDS011;29197;44.788;10.366;2023-02-19T12:17:57;12.57;;;10.10;;
43606;SDS011;29197;44.788;10.366;2023-02-19T12:21:14;14.45;;;10.43;;
43606;SDS011;29197;44.788;10.366;2023-02-19T12:24:17;11.43;;;9.48;;
43606;SDS011;29197;44.788;10.366;2023-02-19T12:27:32;16.77;;;12.23;;
43606;SDS011;29197;44.788;10.366;2023-02-19T12:30:41;16.77;;;12.13;;
43606;SDS011;29197;44.788;10.366;2023-02-19T12:33:56;13.82;;;10.80;;
43606;SDS011;29197;44.788;10.366;2023-02-19T12:36:56;13.90;;;10.60;;
43606;SDS011;29197;44.788;10.366;2023-02-19T12:39:57;15.23;;;11.50;;
43606;SDS011;29197;44.788;10.366;2023-02-19T12:43:01;11.73;;;9.85;;
43606;SDS011;29197;44.788;10.366;2023-02-19T12:45:59;11.95;;;9.43;;
43606;SDS011;29197;44.788;10.366;2023-02-19T12:48:52;12.93;;;9.52;;
43606;SDS011;29197;44.788;10.366;2023-02-19T12:51:46;11.63;;;9.38;;
43606;SDS011;29197;44.788;10.366;2023-02-19T12:54:37;15.27;;;10.13;;
43606;SDS011;29197;44.788;10.366;2023-02-19T12:57:30;10.35;;;8.48;;
43606;SDS011;29197;44.788;10.366;2023-02-19T13:00:25;12.20;;;9.38;;
43606;SDS011;29197;44.788;10.366;2023-02-19T13:03:18;9.70;;;7.90;;
43606;SDS011;29197;44.788;10.366;2023-02-19T13:06:23;12.13;;;9.48;;
43606;SDS011;29197;44.788;10.366;2023-02-19T13:09:19;12.27;;;9.32;;
43606;SDS011;29197;44.788;10.366;2023-02-19T13:12:14;15.25;;;10.57;;
43606;SDS011;29197;44.788;10.366;2023-02-19T13:15:12;11.07;;;9.07;;
43606;SDS011;29197;44.788;10.366;2023-02-19T13:18:04;11.70;;;9.13;;
43606;SDS011;29197;44.788;10.366;2023-02-19T13:21:00;12.18;;;9.85;;
43606;SDS011;29197;44.788;10.366;2023-02-19T13:23:49;12.20;;;9.23;;
43606;SDS011;29197;44.788;10.366;2023-02-19T13:26:52;13.05;;;11.02;;
43606;SDS011;29197;44.788;10.366;2023-02-19T13:30:03;12.07;;;9.55;;
43606;SDS011;29197;44.788;10.366;2023-02-19T13:33:00;19.15;;;12.55;;
43606;SDS011;29197;44.788;10.366;2023-02-19T13:36:01;13.05;;;10.68;;
43606;SDS011;29197;44.788;10.366;2023-02-19T13:39:03;11.88;;;9.57;;
43606;SDS011;29197;44.788;10.366;2023-02-19T13:41:53;11.20;;;8.73;;
43606;SDS011;29197;44.788;10.366;2023-02-19T13:44:46;11.40;;;9.95;;
43606;SDS011;29197;44.788;10.366;2023-02-19T13:47:44;12.00;;;9.60;;
43606;SDS011;29197;44.788;10.366;2023-02-19T13:50:36;11.07;;;8.52;;
43606;SDS011;29197;44.788;10.366;2023-02-19T13:56:36;13.88;;;10.88;;
43606;SDS011;29197;44.788;10.366;2023-02-19T13:59:35;12.27;;;9.50;;
43606;SDS011;29197;44.788;10.366;2023-02-19T14:02:31;13.00;;;11.20;;
43606;SDS011;29197;44.788;10.366;2023-02-19T14:05:55;11.40;;;9.23;;
43606;SDS011;29197;44.788;10.366;2023-02-19T14:08:50;10.55;;;8.60;;
43606;SDS011;29197;44.788;10.366;2023-02-19T14:14:52;11.90;;;9.95;;
43606;SDS011;29197;44.788;10.366;2023-02-19T14:17:41;12.95;;;10.65;;
43606;SDS011;29197;44.788;10.366;2023-02-19T14:20:41;10.40;;;8.57;;
43606;SDS011;29197;44.788;10.366;2023-02-19T14:23:32;10.90;;;8.88;;
43606;SDS011;29197;44.788;10.366;2023-02-19T14:26:21;12.73;;;9.85;;
43606;SDS011;29197;44.788;10.366;2023-02-19T14:29:11;12.03;;;10.00;;
43606;SDS011;29197;44.788;10.366;2023-02-19T14:32:03;10.18;;;8.50;;
43606;SDS011;29197;44.788;10.366;2023-02-19T14:34:52;14.35;;;11.68;;
43606;SDS011;29197;44.788;10.366;2023-02-19T14:37:43;12.10;;;9.70;;
43606;SDS011;29197;44.788;10.366;2023-02-19T14:40:34;10.73;;;8.43;;
43606;SDS011;29197;44.788;10.366;2023-02-19T14:43:27;9.88;;;8.15;;
43606;SDS011;29197;44.788;10.366;2023-02-19T14:46:18;10.07;;;8.02;;
43606;SDS011;29197;44.788;10.366;2023-02-19T14:49:12;18.15;;;13.13;;
43606;SDS011;29197;44.788;10.366;2023-02-19T14:52:07;15.77;;;12.57;;
43606;SDS011;29197;44.788;10.366;2023-02-19T14:54:59;13.77;;;11.23;;
43606;SDS011;29197;44.788;10.366;2023-02-19T14:57:55;11.85;;;10.05;;
43606;SDS011;29197;44.788;10.366;2023-02-19T15:00:45;13.00;;;10.68;;
43606;SDS011;29197;44.788;10.366;2023-02-19T15:03:35;14.00;;;11.13;;
43606;SDS011;29197;44.788;10.366;2023-02-19T15:06:24;12.70;;;9.90;;
43606;SDS011;29197;44.788;10.366;2023-02-19T15:09:13;24.13;;;17.10;;
43606;SDS011;29197;44.788;10.366;2023-02-19T15:12:03;16.90;;;11.48;;
43606;SDS011;29197;44.788;10.366;2023-02-19T15:14:54;18.33;;;15.23;;
43606;SDS011;29197;44.788;10.366;2023-02-19T15:17:47;16.15;;;12.98;;
43606;SDS011;29197;44.788;10.366;2023-02-19T15:20:36;12.32;;;10.55;;
43606;SDS011;29197;44.788;10.366;2023-02-19T15:23:25;12.18;;;10.15;;
43606;SDS011;29197;44.788;10.366;2023-02-19T15:26:17;14.50;;;12.27;;
43606;SDS011;29197;44.788;10.366;2023-02-19T15:29:09;17.50;;;13.45;;
43606;SDS011;29197;44.788;10.366;2023-02-19T15:32:00;12.32;;;10.00;;
43606;SDS011;29197;44.788;10.366;2023-02-19T15:34:52;18.50;;;13.18;;
43606;SDS011;29197;44.788;10.366;2023-02-19T15:37:42;14.15;;;11.10;;
43606;SDS011;29197;44.788;10.366;2023-02-19T15:40:30;16.60;;;12.15;;
43606;SDS011;29197;44.788;10.366;2023-02-19T15:43:19;15.50;;;13.18;;
43606;SDS011;29197;44.788;10.366;2023-02-19T15:46:13;16.25;;;13.13;;
43606;SDS011;29197;44.788;10.366;2023-02-19T15:49:08;15.07;;;12.10;;
43606;SDS011;29197;44.788;10.366;2023-02-19T15:52:03;11.90;;;9.60;;
43606;SDS011;29197;44.788;10.366;2023-02-19T15:54:58;10.83;;;9.13;;
43606;SDS011;29197;44.788;10.366;2023-02-19T15:57:56;13.77;;;10.98;;
43606;SDS011;29197;44.788;10.366;2023-02-19T16:00:50;14.75;;;11.48;;
43606;SDS011;29197;44.788;10.366;2023-02-19T16:03:41;13.30;;;10.57;;
43606;SDS011;29197;44.788;10.366;2023-02-19T16:06:32;14.88;;;11.05;;
43606;SDS011;29197;44.788;10.366;2023-02-19T16:09:38;18.88;;;14.48;;
43606;SDS011;29197;44.788;10.366;2023-02-19T16:12:27;25.50;;;19.70;;
43606;SDS011;29197;44.788;10.366;2023-02-19T16:15:17;23.65;;;17.90;;
43606;SDS011;29197;44.788;10.366;2023-02-19T16:18:10;16.77;;;13.85;;
43606;SDS011;29197;44.788;10.366;2023-02-19T16:21:01;16.48;;;12.40;;
43606;SDS011;29197;44.788;10.366;2023-02-19T16:23:57;16.42;;;12.70;;
43606;SDS011;29197;44.788;10.366;2023-02-19T16:26:51;16.02;;;12.25;;
43606;SDS011;29197;44.788;10.366;2023-02-19T16:29:43;19.70;;;14.82;;
43606;SDS011;29197;44.788;10.366;2023-02-19T16:32:37;15.57;;;11.65;;
43606;SDS011;29197;44.788;10.366;2023-02-19T16:35:35;17.65;;;13.13;;
43606;SDS011;29197;44.788;10.366;2023-02-19T16:38:25;20.45;;;15.50;;
43606;SDS011;29197;44.788;10.366;2023-02-19T16:41:15;18.55;;;14.45;;
43606;SDS011;29197;44.788;10.366;2023-02-19T16:44:07;20.48;;;16.25;;
43606;SDS011;29197;44.788;10.366;2023-02-19T16:47:26;18.50;;;14.87;;
43606;SDS011;29197;44.788;10.366;2023-02-19T16:50:18;25.23;;;16.88;;
43606;SDS011;29197;44.788;10.366;2023-02-19T16:53:13;34.90;;;21.08;;